Time;durP1;ratioP1;P1;durP2;ratioP2;P2;SDS_P1;SDS_P2;PMS_P1;PMS_P2;Temp;Humidity;BMP_temperature;BMP_pressure;BME280_temperature;BME280_humidity;BME280_pressure;Samples;Min_cycle;Max_cycle;Signal;HPM_P1;HPM_P2
2020/12/29 00:00:10;;;;;;;14.03;11.47;;;3.60;99.90;;;;;;5003728;28;20560;-53
2020/12/29 00:02:38;;;;;;;14.67;11.50;;;3.60;99.90;;;;;;5013675;28;20483;-53
2020/12/29 00:05:05;;;;;;;13.37;11.20;;;3.60;99.90;;;;;;5017657;28;20503;-53
2020/12/29 00:07:32;;;;;;;15.67;12.10;;;3.50;99.90;;;;;;5015880;28;20494;-53
2020/12/29 00:10:00;;;;;;;15.50;11.23;;;3.50;99.90;;;;;;5017227;28;20558;-53
2020/12/29 00:12:27;;;;;;;14.47;11.33;;;3.50;99.90;;;;;;5016953;28;20598;-54
2020/12/29 00:14:54;;;;;;;13.37;10.67;;;3.50;99.90;;;;;;5018939;28;21249;-53
2020/12/29 00:17:21;;;;;;;15.03;11.17;;;3.50;99.90;;;;;;5016886;28;20485;-53
2020/12/29 00:19:50;;;;;;;14.30;11.20;;;3.60;99.90;;;;;;5017891;28;20513;-52
2020/12/29 00:22:17;;;;;;;12.63;10.63;;;3.50;99.90;;;;;;5017600;28;20520;-53
2020/12/29 00:24:47;;;;;;;13.87;11.10;;;3.50;99.90;;;;;;5017431;28;20602;-53
2020/12/29 00:27:15;;;;;;;14.57;11.13;;;3.60;99.90;;;;;;5017217;28;21058;-53
2020/12/29 00:29:43;;;;;;;13.83;10.77;;;3.50;99.90;;;;;;5018535;28;20960;-52
2020/12/29 00:32:10;;;;;;;11.87;10.37;;;3.40;99.90;;;;;;5012345;28;20493;-53
2020/12/29 00:34:39;;;;;;;13.13;10.70;;;3.40;99.90;;;;;;5010693;28;21003;-53
2020/12/29 00:37:07;;;;;;;13.63;10.43;;;3.40;99.90;;;;;;5010655;28;21068;-53
2020/12/29 00:39:35;;;;;;;12.13;10.37;;;3.40;99.90;;;;;;5004103;28;20492;-53
2020/12/29 00:42:02;;;;;;;12.67;10.20;;;3.40;99.90;;;;;;5003871;28;20480;-53
2020/12/29 00:44:29;;;;;;;14.03;10.93;;;3.40;99.90;;;;;;5012105;28;20574;-53
2020/12/29 00:46:57;;;;;;;11.67;10.10;;;3.40;99.90;;;;;;5007878;28;20517;-54
2020/12/29 00:49:24;;;;;;;11.57;9.57;;;3.30;99.90;;;;;;5023031;28;21035;-52
2020/12/29 00:51:53;;;;;;;11.50;9.50;;;3.40;99.90;;;;;;5022997;28;20480;-53
2020/12/29 00:54:26;;;;;;;11.60;9.70;;;3.30;99.90;;;;;;5012848;28;20923;-53
2020/12/29 00:56:53;;;;;;;12.60;10.07;;;3.30;99.90;;;;;;5008065;28;20508;-53
2020/12/29 00:59:24;;;;;;;12.23;10.27;;;3.30;99.90;;;;;;5022487;28;20710;-53
2020/12/29 01:01:54;;;;;;;11.30;9.60;;;3.30;99.90;;;;;;5018227;28;20695;-53
2020/12/29 01:04:40;;;;;;;10.60;8.97;;;3.20;99.90;;;;;;5006462;28;20510;-53
2020/12/29 01:07:08;;;;;;;9.60;8.43;;;3.20;99.90;;;;;;5006476;28;20492;-52
2020/12/29 01:09:37;;;;;;;10.30;9.20;;;3.20;99.90;;;;;;5006115;28;20489;-53
2020/12/29 01:12:04;;;;;;;10.57;9.47;;;3.10;99.90;;;;;;5005978;28;20481;-53
2020/12/29 01:14:32;;;;;;;10.23;8.93;;;3.10;99.90;;;;;;5007191;28;21042;-53
2020/12/29 01:17:06;;;;;;;10.57;9.47;;;3.10;99.90;;;;;;5024806;28;21046;-53
2020/12/29 01:19:33;;;;;;;11.63;9.80;;;3.10;99.90;;;;;;5010740;28;21078;-53
2020/12/29 01:22:01;;;;;;;11.07;9.70;;;3.20;99.90;;;;;;5037057;28;20512;-53
2020/12/29 01:24:28;;;;;;;11.07;9.07;;;3.30;99.90;;;;;;5029017;28;20513;-53
2020/12/29 01:26:57;;;;;;;12.23;10.53;;;3.20;99.90;;;;;;5024183;28;20523;-53
2020/12/29 01:29:25;;;;;;;13.17;9.90;;;3.20;99.90;;;;;;5030967;28;20568;-53
2020/12/29 01:31:52;;;;;;;11.83;9.33;;;3.40;99.90;;;;;;5029847;28;20508;-53
2020/12/29 01:34:19;;;;;;;11.83;9.33;;;3.30;99.90;;;;;;5029636;28;20500;-53
2020/12/29 01:36:47;;;;;;;12.13;9.70;;;3.30;99.90;;;;;;5027661;28;20485;-53
2020/12/29 01:39:14;;;;;;;10.37;9.27;;;3.30;99.90;;;;;;5029059;28;20511;-53
2020/12/29 01:41:41;;;;;;;12.87;10.30;;;3.20;99.90;;;;;;5028656;28;20515;-53
2020/12/29 01:44:14;;;;;;;11.57;8.90;;;3.20;99.90;;;;;;5029005;28;20556;-53
2020/12/29 01:46:44;;;;;;;9.80;8.77;;;3.20;99.90;;;;;;5009286;28;20568;-53
2020/12/29 01:49:12;;;;;;;10.17;8.30;;;3.20;99.90;;;;;;5009249;28;20878;-53
2020/12/29 01:51:40;;;;;;;9.97;8.47;;;3.10;99.90;;;;;;5007669;28;21009;-53
2020/12/29 01:54:08;;;;;;;9.53;8.20;;;3.10;99.90;;;;;;5009078;28;20468;-53
2020/12/29 01:56:42;;;;;;;8.47;7.57;;;3.10;99.90;;;;;;5008753;28;20585;-53
2020/12/29 01:59:13;;;;;;;10.57;7.57;;;3.10;99.90;;;;;;5009045;28;20905;-54
2020/12/29 02:01:44;;;;;;;10.97;8.40;;;3.00;99.90;;;;;;5035826;28;20563;-53
2020/12/29 02:04:12;;;;;;;8.80;7.90;;;3.00;99.90;;;;;;5028647;28;20472;-53
2020/12/29 02:06:40;;;;;;;8.90;7.80;;;3.00;99.90;;;;;;5028547;28;20560;-53
2020/12/29 02:09:09;;;;;;;8.67;7.40;;;3.00;99.90;;;;;;5008901;28;20526;-53
2020/12/29 02:11:37;;;;;;;9.23;7.57;;;3.00;99.90;;;;;;5008142;28;20580;-53
2020/12/29 02:14:08;;;;;;;9.90;7.73;;;3.10;99.90;;;;;;5008719;28;20464;-53
2020/12/29 02:16:37;;;;;;;10.63;9.23;;;3.30;99.90;;;;;;5008072;28;20486;-53
2020/12/29 02:19:06;;;;;;;11.47;9.10;;;3.20;99.90;;;;;;5008567;28;20559;-53
2020/12/29 02:21:34;;;;;;;9.83;8.77;;;3.30;99.90;;;;;;5007912;28;20493;-53
2020/12/29 02:24:03;;;;;;;9.53;8.03;;;3.20;99.90;;;;;;5008426;28;20478;-52
2020/12/29 02:26:33;;;;;;;9.87;8.10;;;3.10;99.90;;;;;;5013081;28;20570;-53
2020/12/29 02:29:03;;;;;;;9.90;8.57;;;3.00;99.90;;;;;;5025300;28;20871;-53
2020/12/29 02:31:31;;;;;;;8.70;7.80;;;3.10;99.90;;;;;;5023698;28;20483;-53
2020/12/29 02:33:58;;;;;;;9.00;7.97;;;3.10;99.90;;;;;;5014419;28;20543;-53
2020/12/29 02:36:26;;;;;;;8.57;7.43;;;3.00;99.90;;;;;;5008265;28;20908;-53
2020/12/29 02:38:53;;;;;;;8.40;7.60;;;2.80;99.90;;;;;;5008399;28;20521;-52
2020/12/29 02:41:21;;;;;;;8.77;7.87;;;2.80;99.90;;;;;;5007920;28;20850;-53
2020/12/29 02:43:48;;;;;;;8.77;7.87;;;2.80;99.90;;;;;;5008211;28;21091;-52
2020/12/29 02:46:16;;;;;;;8.90;8.00;;;2.80;99.90;;;;;;5008224;28;20905;-53
2020/12/29 02:48:43;;;;;;;8.37;7.57;;;2.80;99.90;;;;;;5019013;28;20562;-53
2020/12/29 02:51:14;;;;;;;7.93;7.10;;;2.80;99.90;;;;;;5024638;28;20955;-53
2020/12/29 02:53:41;;;;;;;8.00;7.20;;;2.80;99.90;;;;;;5019520;28;20897;-52
2020/12/29 02:56:09;;;;;;;9.10;8.20;;;2.70;99.90;;;;;;5027798;28;20975;-53
2020/12/29 02:58:37;;;;;;;9.03;8.07;;;2.70;99.90;;;;;;5027685;28;21046;-53
2020/12/29 03:01:05;;;;;;;8.90;7.70;;;2.60;99.90;;;;;;5026896;28;20556;-53
2020/12/29 03:03:32;;;;;;;8.50;7.60;;;2.70;99.90;;;;;;5027452;28;20520;-53
2020/12/29 03:05:59;;;;;;;9.27;7.70;;;2.60;99.90;;;;;;5027308;28;20511;-53
2020/12/29 03:08:26;;;;;;;8.93;7.67;;;2.70;99.90;;;;;;5027420;28;20503;-53
2020/12/29 03:10:54;;;;;;;8.80;7.87;;;2.60;99.90;;;;;;5027368;28;20595;-53
2020/12/29 03:13:21;;;;;;;8.93;8.10;;;2.60;99.90;;;;;;5027568;28;20521;-54
2020/12/29 03:15:49;;;;;;;8.20;7.40;;;2.60;99.90;;;;;;5027909;28;20531;-53
2020/12/29 03:18:16;;;;;;;8.30;7.20;;;2.60;99.90;;;;;;5027705;28;20516;-53
2020/12/29 03:20:43;;;;;;;9.17;7.63;;;2.60;99.90;;;;;;5027383;28;20548;-54
2020/12/29 03:23:11;;;;;;;8.83;7.97;;;2.60;99.90;;;;;;5023607;28;20501;-53
2020/12/29 03:25:38;;;;;;;8.20;7.33;;;2.70;99.90;;;;;;5034585;28;20888;-53
2020/12/29 03:28:06;;;;;;;8.93;7.30;;;2.60;99.90;;;;;;5027161;28;20559;-53
2020/12/29 03:30:33;;;;;;;8.40;7.47;;;2.60;99.90;;;;;;5033252;28;20976;-53
2020/12/29 03:33:02;;;;;;;8.10;7.33;;;2.60;99.90;;;;;;5007495;28;20495;-53
2020/12/29 03:35:29;;;;;;;8.27;7.47;;;2.70;99.90;;;;;;5007646;28;20474;-53
2020/12/29 03:37:56;;;;;;;9.70;8.70;;;2.80;99.90;;;;;;5007734;28;20517;-53
2020/12/29 03:40:24;;;;;;;10.60;9.50;;;2.70;99.90;;;;;;5007655;28;20842;-53
2020/12/29 03:42:51;;;;;;;9.57;8.57;;;2.70;99.90;;;;;;5020622;28;20877;-53
2020/12/29 03:45:18;;;;;;;9.73;8.73;;;2.60;99.90;;;;;;5027593;28;20817;-53
2020/12/29 03:47:46;;;;;;;9.70;8.47;;;2.60;99.90;;;;;;5027188;28;21066;-53
2020/12/29 03:50:14;;;;;;;9.37;8.47;;;2.60;99.90;;;;;;5026605;28;20899;-53
2020/12/29 03:52:41;;;;;;;9.70;8.70;;;2.50;99.90;;;;;;5007332;28;20480;-53
2020/12/29 03:55:09;;;;;;;9.40;8.40;;;2.50;99.90;;;;;;5007620;28;20473;-53
2020/12/29 03:57:36;;;;;;;9.13;8.23;;;2.50;99.90;;;;;;5007124;28;20476;-53
2020/12/29 04:00:05;;;;;;;9.40;8.47;;;2.60;99.90;;;;;;5008547;28;20509;-53
2020/12/29 04:02:38;;;;;;;9.63;8.43;;;2.50;99.90;;;;;;5010316;28;20476;-53
2020/12/29 04:05:05;;;;;;;9.33;8.43;;;2.50;99.90;;;;;;5011095;28;20479;-53
2020/12/29 04:07:34;;;;;;;8.70;7.70;;;2.50;99.90;;;;;;5010943;28;20484;-53
2020/12/29 04:10:01;;;;;;;9.47;8.47;;;2.60;99.90;;;;;;5010841;28;20515;-53
2020/12/29 04:12:29;;;;;;;9.53;8.60;;;2.70;99.90;;;;;;5018392;28;20476;-53
2020/12/29 04:14:56;;;;;;;10.57;9.47;;;2.80;99.90;;;;;;5011017;28;20504;-53
2020/12/29 04:17:24;;;;;;;9.90;8.90;;;2.70;99.90;;;;;;5010586;28;20480;-53
2020/12/29 04:19:51;;;;;;;10.40;9.40;;;2.60;99.90;;;;;;5010710;28;20583;-53
2020/12/29 04:22:19;;;;;;;9.60;8.60;;;2.60;99.90;;;;;;5010463;28;20478;-53
2020/12/29 04:24:47;;;;;;;9.23;8.30;;;2.60;99.90;;;;;;5027368;28;20542;-53
2020/12/29 04:27:14;;;;;;;9.07;8.17;;;2.60;99.90;;;;;;5030306;28;20500;-53
2020/12/29 04:29:41;;;;;;;8.77;7.87;;;2.60;99.90;;;;;;5030614;28;20503;-53
2020/12/29 04:32:08;;;;;;;9.40;8.40;;;2.60;99.90;;;;;;5029796;28;20988;-53
2020/12/29 04:34:36;;;;;;;8.97;8.07;;;2.60;99.90;;;;;;5030267;28;20476;-53
2020/12/29 04:37:07;;;;;;;8.70;7.90;;;2.60;99.90;;;;;;5030163;28;20499;-53
2020/12/29 04:39:35;;;;;;;9.77;8.77;;;2.70;99.90;;;;;;5030258;28;20995;-53
2020/12/29 04:42:05;;;;;;;9.07;8.17;;;2.80;99.90;;;;;;5030756;28;20484;-53
2020/12/29 04:44:34;;;;;;;8.63;7.83;;;2.70;99.90;;;;;;5011245;28;20675;-54
2020/12/29 04:47:01;;;;;;;8.37;7.43;;;2.60;99.90;;;;;;5010107;28;20561;-53
2020/12/29 04:49:29;;;;;;;9.03;8.13;;;2.70;99.90;;;;;;5010000;28;20512;-53
2020/12/29 04:51:58;;;;;;;9.07;8.17;;;2.60;99.90;;;;;;5009654;28;20496;-53
2020/12/29 04:54:26;;;;;;;8.77;7.87;;;2.70;99.90;;;;;;5010124;28;20571;-53
2020/12/29 04:56:56;;;;;;;8.57;7.67;;;2.70;99.90;;;;;;5009927;28;20569;-53
2020/12/29 04:59:24;;;;;;;10.33;9.17;;;3.10;99.90;;;;;;5009971;28;20559;-53
2020/12/29 05:01:51;;;;;;;10.60;9.50;;;3.00;99.90;;;;;;5023786;28;20512;-53
2020/12/29 05:04:19;;;;;;;11.50;10.30;;;3.00;99.90;;;;;;5029625;28;20480;-53
2020/12/29 05:06:46;;;;;;;11.10;9.00;;;3.00;99.90;;;;;;5029117;28;20503;-53
2020/12/29 05:09:13;;;;;;;11.73;10.07;;;3.00;99.90;;;;;;5029488;28;20607;-53
2020/12/29 05:11:41;;;;;;;12.17;10.60;;;3.20;99.90;;;;;;5029409;28;20509;-54
2020/12/29 05:14:08;;;;;;;12.80;10.00;;;3.10;99.90;;;;;;5029641;28;21001;-53
2020/12/29 05:16:38;;;;;;;14.77;11.00;;;3.20;99.90;;;;;;5029388;28;20478;-53
2020/12/29 05:19:10;;;;;;;15.43;11.07;;;3.30;99.90;;;;;;5026434;28;20484;-53
2020/12/29 05:21:39;;;;;;;17.73;13.33;;;3.40;99.90;;;;;;5016657;28;20999;-53
2020/12/29 05:24:14;;;;;;;14.93;11.37;;;3.40;99.90;;;;;;5027926;28;20474;-53
2020/12/29 05:26:45;;;;;;;21.07;14.87;;;3.40;99.90;;;;;;5025099;28;20472;-53
2020/12/29 05:29:14;;;;;;;16.87;12.67;;;3.50;99.90;;;;;;5009701;28;20549;-53
2020/12/29 05:31:44;;;;;;;17.50;13.47;;;3.30;99.90;;;;;;5008591;28;20492;-53
2020/12/29 05:34:19;;;;;;;16.70;13.10;;;3.10;99.90;;;;;;5009289;28;20503;-53
2020/12/29 05:36:48;;;;;;;14.20;12.10;;;3.10;99.90;;;;;;5011575;28;20480;-53
2020/12/29 05:39:20;;;;;;;15.33;12.30;;;2.90;99.90;;;;;;5008952;28;20482;-53
2020/12/29 05:41:49;;;;;;;15.83;11.77;;;3.00;99.90;;;;;;5008121;28;20917;-53
2020/12/29 05:44:26;;;;;;;18.13;12.87;;;3.00;99.90;;;;;;5008878;28;20498;-53
2020/12/29 05:46:54;;;;;;;15.13;11.77;;;2.90;99.90;;;;;;5006025;28;20475;-53
2020/12/29 05:49:23;;;;;;;13.33;10.93;;;2.80;99.90;;;;;;5008797;28;20525;-53
2020/12/29 05:51:53;;;;;;;13.70;10.20;;;3.00;99.90;;;;;;5008018;28;20579;-53
2020/12/29 05:54:21;;;;;;;11.83;9.67;;;2.90;99.90;;;;;;5008827;28;21006;-53
2020/12/29 05:56:50;;;;;;;14.77;11.50;;;2.90;99.90;;;;;;5008500;28;20598;-53
2020/12/29 05:59:17;;;;;;;13.37;10.30;;;3.10;99.90;;;;;;5008185;28;20573;-53
2020/12/29 06:01:50;;;;;;;14.67;10.97;;;3.00;99.90;;;;;;5021449;28;20534;-53
2020/12/29 06:04:20;;;;;;;11.07;9.73;;;2.90;99.90;;;;;;5026121;28;20505;-53
2020/12/29 06:06:50;;;;;;;15.97;12.43;;;2.90;99.90;;;;;;5028000;28;20809;-53
2020/12/29 06:09:19;;;;;;;13.13;10.53;;;3.50;99.90;;;;;;5028389;28;20537;-53
2020/12/29 06:11:55;;;;;;;13.77;10.87;;;3.20;99.90;;;;;;5027493;28;20533;-53
2020/12/29 06:14:24;;;;;;;14.70;10.70;;;3.60;99.90;;;;;;5028610;28;20496;-53
2020/12/29 06:16:53;;;;;;;15.63;11.73;;;3.30;99.90;;;;;;5028385;28;20566;-53
2020/12/29 06:19:24;;;;;;;18.87;12.97;;;3.60;99.90;;;;;;5039138;28;21060;-53
2020/12/29 06:22:05;;;;;;;15.50;11.27;;;3.30;99.90;;;;;;5020514;28;20482;-53
2020/12/29 06:24:37;;;;;;;17.50;12.43;;;3.30;99.90;;;;;;5027527;28;20752;-53
2020/12/29 06:27:06;;;;;;;20.53;14.50;;;3.70;99.90;;;;;;5028449;28;20566;-53
2020/12/29 06:29:37;;;;;;;21.40;13.13;;;3.30;99.90;;;;;;5027887;28;20487;-53
2020/12/29 06:32:12;;;;;;;21.33;15.53;;;3.70;99.90;;;;;;5027366;28;20542;-53
2020/12/29 06:34:42;;;;;;;20.83;14.97;;;3.50;99.90;;;;;;5027937;28;20545;-53
2020/12/29 06:37:20;;;;;;;20.03;14.37;;;3.40;99.90;;;;;;5028444;28;20580;-53
2020/12/29 06:39:53;;;;;;;19.27;13.30;;;3.20;99.90;;;;;;5027648;28;21002;-53
2020/12/29 06:42:21;;;;;;;19.43;13.43;;;3.10;99.90;;;;;;5024193;28;20529;-54
2020/12/29 06:44:55;;;;;;;18.20;12.00;;;3.70;99.90;;;;;;5028149;28;20905;-53
2020/12/29 06:47:24;;;;;;;18.17;12.47;;;3.60;99.90;;;;;;5027835;28;20507;-53
2020/12/29 06:49:53;;;;;;;21.63;15.03;;;3.40;99.90;;;;;;5027667;28;20546;-53
2020/12/29 06:52:29;;;;;;;20.33;14.90;;;3.20;99.90;;;;;;5027400;28;20567;-53
2020/12/29 06:54:58;;;;;;;21.93;13.80;;;3.10;99.90;;;;;;5027971;28;20484;-54
2020/12/29 06:57:45;;;;;;;19.60;14.50;;;3.50;99.90;;;;;;5027824;28;20566;-53
2020/12/29 07:00:20;;;;;;;19.17;14.43;;;3.30;99.90;;;;;;5027140;28;20477;-53
2020/12/29 07:02:49;;;;;;;21.00;15.57;;;3.10;99.90;;;;;;5007457;28;20902;-53
2020/12/29 07:05:21;;;;;;;17.93;14.07;;;3.50;99.90;;;;;;5008202;28;20509;-53
2020/12/29 07:07:57;;;;;;;18.97;13.13;;;3.40;99.90;;;;;;5007933;28;20480;-53
2020/12/29 07:10:38;;;;;;;16.63;11.17;;;3.20;99.90;;;;;;5007722;28;20515;-53
2020/12/29 07:13:08;;;;;;;18.20;13.90;;;3.30;99.90;;;;;;5004487;28;20485;-53
2020/12/29 07:15:48;;;;;;;17.30;12.50;;;3.30;99.90;;;;;;5003698;28;20483;-54
2020/12/29 07:18:22;;;;;;;20.93;15.37;;;3.20;99.90;;;;;;5021330;28;20471;-53
2020/12/29 07:20:51;;;;;;;17.43;13.47;;;3.10;99.90;;;;;;5015337;28;20854;-53
2020/12/29 07:23:21;;;;;;;18.80;12.40;;;3.10;99.90;;;;;;5003404;28;20468;-53
2020/12/29 07:25:50;;;;;;;20.57;15.33;;;3.30;99.90;;;;;;5003295;28;20492;-53
2020/12/29 07:28:21;;;;;;;20.83;14.57;;;3.30;99.90;;;;;;5003782;28;21096;-53
2020/12/29 07:30:50;;;;;;;19.60;13.83;;;3.40;99.90;;;;;;5004994;28;20569;-53
2020/12/29 07:33:22;;;;;;;19.63;14.63;;;3.20;99.90;;;;;;5006311;28;21272;-54
2020/12/29 07:35:51;;;;;;;21.37;14.13;;;3.20;99.90;;;;;;5008531;28;20490;-53
2020/12/29 07:38:22;;;;;;;18.27;13.37;;;3.30;99.90;;;;;;5010294;28;20869;-53
2020/12/29 07:40:50;;;;;;;18.53;13.47;;;3.20;99.90;;;;;;5009604;28;20513;-53
2020/12/29 07:43:17;;;;;;;18.37;13.57;;;3.20;99.90;;;;;;5009683;28;20892;-53
2020/12/29 07:45:45;;;;;;;19.37;14.30;;;3.10;99.90;;;;;;5009999;28;20564;-53
2020/12/29 07:48:12;;;;;;;20.33;15.37;;;3.20;99.90;;;;;;5010470;28;20507;-53
2020/12/29 07:50:41;;;;;;;23.30;16.77;;;3.40;99.90;;;;;;5009924;28;20895;-53
2020/12/29 07:53:11;;;;;;;22.57;16.60;;;3.30;99.90;;;;;;5009568;28;20884;-53
2020/12/29 07:55:43;;;;;;;25.20;17.83;;;3.40;99.90;;;;;;5009936;28;20481;-53
2020/12/29 07:58:11;;;;;;;26.53;18.10;;;3.50;99.90;;;;;;5009657;28;20531;-53
2020/12/29 08:00:40;;;;;;;25.67;17.77;;;3.40;99.90;;;;;;5013396;28;20475;-53
2020/12/29 08:03:09;;;;;;;25.47;18.03;;;3.30;99.90;;;;;;5028868;28;20548;-53
2020/12/29 08:05:37;;;;;;;33.60;21.53;;;3.30;99.90;;;;;;5029447;28;20474;-53
2020/12/29 08:08:07;;;;;;;34.10;19.97;;;3.40;99.90;;;;;;5029458;28;20501;-53
2020/12/29 08:10:38;;;;;;;37.67;22.37;;;3.60;99.90;;;;;;5031928;28;20579;-54
2020/12/29 08:13:06;;;;;;;48.00;27.77;;;3.50;99.90;;;;;;5029754;28;20490;-53
2020/12/29 08:15:36;;;;;;;41.07;25.47;;;3.50;99.90;;;;;;5018146;28;20564;-53
2020/12/29 08:18:08;;;;;;;49.27;27.73;;;3.50;99.90;;;;;;5038270;28;20889;-53
2020/12/29 08:20:44;;;;;;;51.00;29.77;;;3.60;99.90;;;;;;5006959;28;20539;-53
2020/12/29 08:23:12;;;;;;;49.30;28.73;;;3.60;99.90;;;;;;5007458;28;20561;-53
2020/12/29 08:25:47;;;;;;;45.40;26.17;;;3.40;99.90;;;;;;5007732;28;20498;-53
2020/12/29 08:28:15;;;;;;;53.53;31.37;;;3.60;99.90;;;;;;5008055;28;20547;-53
2020/12/29 08:30:43;;;;;;;52.83;31.63;;;3.60;99.90;;;;;;5008711;28;20484;-53
2020/12/29 08:33:14;;;;;;;49.50;27.43;;;3.60;99.90;;;;;;5010184;28;20474;-53
2020/12/29 08:35:47;;;;;;;56.03;32.60;;;3.80;99.90;;;;;;5028694;28;20558;-53
2020/12/29 08:38:44;;;;;;;57.33;32.77;;;3.90;99.90;;;;;;5006842;28;20523;-53
2020/12/29 08:41:21;;;;;;;52.33;32.10;;;3.70;99.90;;;;;;5009183;28;20499;-53
2020/12/29 08:43:50;;;;;;;51.87;30.90;;;3.70;99.90;;;;;;5029597;28;20929;-53
2020/12/29 08:46:20;;;;;;;53.40;33.37;;;3.70;99.90;;;;;;5029739;28;20470;-52
2020/12/29 08:48:53;;;;;;;59.07;34.40;;;3.60;99.90;;;;;;5030149;28;20885;-53
2020/12/29 08:51:27;;;;;;;53.67;34.17;;;3.70;99.90;;;;;;5029475;28;20525;-53
2020/12/29 08:54:06;;;;;;;58.33;38.03;;;3.60;99.90;;;;;;5029923;28;21052;-53
2020/12/29 08:56:35;;;;;;;54.80;35.10;;;3.70;99.90;;;;;;5029667;28;21042;-53
2020/12/29 08:59:11;;;;;;;52.23;34.53;;;3.60;99.90;;;;;;5029563;28;20479;-53
2020/12/29 09:01:40;;;;;;;53.50;33.53;;;3.60;99.90;;;;;;5029035;28;20519;-53
2020/12/29 09:04:24;;;;;;;49.87;33.67;;;3.60;99.90;;;;;;5029217;28;20496;-53
2020/12/29 09:07:04;;;;;;;50.23;33.40;;;3.60;99.90;;;;;;5008353;28;20526;-53
2020/12/29 09:09:34;;;;;;;48.50;33.10;;;3.60;99.90;;;;;;5013771;28;20571;-53
2020/12/29 09:12:15;;;;;;;47.13;32.47;;;3.70;99.90;;;;;;5032504;28;20482;-53
2020/12/29 09:15:01;;;;;;;47.27;32.30;;;3.70;99.90;;;;;;5027628;28;20494;-53
2020/12/29 09:17:30;;;;;;;47.07;33.10;;;3.60;99.90;;;;;;5028214;28;20481;-53
2020/12/29 09:20:17;;;;;;;44.43;32.13;;;3.70;99.90;;;;;;5029490;28;20488;-53
2020/12/29 09:22:56;;;;;;;44.67;31.30;;;3.70;99.90;;;;;;5029047;28;20579;-53
2020/12/29 09:25:35;;;;;;;45.60;32.57;;;3.70;99.90;;;;;;5029267;28;20498;-53
2020/12/29 09:28:19;;;;;;;43.07;30.70;;;3.70;99.90;;;;;;5029238;28;20498;-53
2020/12/29 09:30:57;;;;;;;47.53;31.90;;;3.70;99.90;;;;;;5028520;28;20579;-52
2020/12/29 09:33:26;;;;;;;44.47;31.10;;;3.70;99.90;;;;;;5028828;28;20534;-53
2020/12/29 09:35:54;;;;;;;43.17;32.90;;;3.70;99.90;;;;;;5029078;28;20551;-53
2020/12/29 09:38:21;;;;;;;42.63;32.50;;;3.70;99.90;;;;;;5029167;28;20489;-53
2020/12/29 09:40:59;;;;;;;44.73;32.60;;;3.80;99.90;;;;;;5024556;28;20595;-53
2020/12/29 09:43:27;;;;;;;43.00;32.93;;;3.80;99.90;;;;;;5014880;28;20491;-53
2020/12/29 09:45:57;;;;;;;43.47;32.77;;;3.80;99.90;;;;;;5009408;28;20920;-53
2020/12/29 09:48:25;;;;;;;41.83;31.57;;;3.80;99.90;;;;;;5009003;28;20609;-53
2020/12/29 09:50:52;;;;;;;38.23;29.83;;;3.80;99.90;;;;;;5008663;28;20488;-53
2020/12/29 09:53:20;;;;;;;43.87;32.63;;;3.80;99.90;;;;;;5008559;28;20899;-53
2020/12/29 09:55:47;;;;;;;40.10;31.00;;;3.90;99.90;;;;;;5008755;28;20553;-53
2020/12/29 09:58:14;;;;;;;40.67;30.80;;;3.80;99.90;;;;;;5008132;28;20510;-53
2020/12/29 10:01:02;;;;;;;38.27;30.57;;;3.80;99.90;;;;;;5010336;28;21559;-53
2020/12/29 10:03:32;;;;;;;39.67;30.40;;;3.90;99.90;;;;;;5021458;28;20471;-53
2020/12/29 10:05:59;;;;;;;40.07;30.43;;;3.90;99.90;;;;;;5016235;28;20508;-53
2020/12/29 10:08:26;;;;;;;38.27;30.07;;;3.80;99.90;;;;;;5025549;28;20492;-52
2020/12/29 10:10:53;;;;;;;38.60;29.47;;;3.80;99.90;;;;;;5022704;28;20581;-53
2020/12/29 10:13:21;;;;;;;36.67;28.67;;;3.90;99.90;;;;;;5028027;28;20517;-53
2020/12/29 10:15:49;;;;;;;37.03;28.63;;;3.90;99.90;;;;;;5027738;28;20494;-52
2020/12/29 10:18:18;;;;;;;36.23;28.03;;;3.90;99.90;;;;;;5027554;28;20488;-52
2020/12/29 10:20:45;;;;;;;35.83;28.20;;;3.90;99.90;;;;;;5026990;28;20975;-53
2020/12/29 10:23:12;;;;;;;36.67;28.30;;;3.90;99.90;;;;;;5026923;28;20510;-53
2020/12/29 10:25:40;;;;;;;36.23;28.37;;;3.90;99.90;;;;;;5026610;28;20888;-54
2020/12/29 10:28:07;;;;;;;34.23;28.23;;;3.90;99.90;;;;;;5026847;28;20956;-54
2020/12/29 10:30:34;;;;;;;32.40;27.20;;;4.00;99.90;;;;;;5026331;28;21029;-53
2020/12/29 10:33:02;;;;;;;37.00;29.13;;;4.00;99.90;;;;;;5026450;28;20584;-53
2020/12/29 10:35:30;;;;;;;36.73;29.47;;;4.00;99.90;;;;;;5026577;28;20579;-53
2020/12/29 10:37:57;;;;;;;38.70;29.23;;;4.00;99.90;;;;;;5026596;28;20495;-52
2020/12/29 10:40:25;;;;;;;40.47;29.87;;;4.00;99.90;;;;;;5026236;28;20492;-53
2020/12/29 10:42:52;;;;;;;37.40;28.70;;;3.90;99.90;;;;;;5026103;28;20473;-53
2020/12/29 10:45:19;;;;;;;37.97;28.97;;;4.00;99.90;;;;;;5026746;28;20919;-53
2020/12/29 10:47:46;;;;;;;36.13;29.47;;;4.00;99.90;;;;;;5026042;28;20553;-52
2020/12/29 10:50:14;;;;;;;35.23;28.10;;;4.00;99.90;;;;;;5027019;28;20565;-53
2020/12/29 10:52:42;;;;;;;35.83;26.93;;;4.00;99.90;;;;;;5025825;28;20467;-53
2020/12/29 10:55:09;;;;;;;35.00;28.67;;;4.00;99.90;;;;;;5026428;28;20489;-53
2020/12/29 10:57:37;;;;;;;35.07;28.27;;;4.00;99.90;;;;;;5026027;28;20572;-53
2020/12/29 11:00:04;;;;;;;34.67;27.93;;;4.10;99.90;;;;;;5036564;28;20478;-53
2020/12/29 11:02:32;;;;;;;34.20;27.10;;;4.10;99.90;;;;;;5037030;28;20571;-53
2020/12/29 11:04:59;;;;;;;34.23;27.00;;;4.10;99.90;;;;;;5046427;28;21087;-53
2020/12/29 11:07:27;;;;;;;29.47;25.20;;;4.10;99.90;;;;;;5029396;28;20513;-53
2020/12/29 11:09:55;;;;;;;31.53;26.07;;;4.10;99.90;;;;;;5020770;28;20488;-53
2020/12/29 11:12:22;;;;;;;37.20;28.13;;;4.10;99.90;;;;;;5030109;28;20506;-52
2020/12/29 11:14:49;;;;;;;32.10;25.03;;;4.20;99.90;;;;;;5030539;28;20510;-53
2020/12/29 11:17:17;;;;;;;31.57;25.97;;;4.20;99.90;;;;;;5030238;28;20531;-53
2020/12/29 11:19:47;;;;;;;34.33;26.30;;;4.30;99.90;;;;;;5029938;28;20489;-53
2020/12/29 11:22:14;;;;;;;37.30;28.27;;;4.50;99.90;;;;;;5029790;28;21049;-53
2020/12/29 11:24:42;;;;;;;33.33;27.30;;;4.50;99.90;;;;;;5022500;28;20472;-52
2020/12/29 11:27:10;;;;;;;28.67;24.87;;;4.40;99.90;;;;;;5010693;28;20480;-53
2020/12/29 11:29:37;;;;;;;29.93;24.80;;;4.40;99.90;;;;;;5021829;28;20911;-53
2020/12/29 11:32:05;;;;;;;28.80;23.60;;;4.50;99.90;;;;;;5027872;28;20478;-53
2020/12/29 11:34:32;;;;;;;28.00;23.13;;;4.50;99.90;;;;;;5029587;28;20483;-53
2020/12/29 11:36:59;;;;;;;28.97;22.93;;;4.50;99.90;;;;;;5027798;28;20504;-53
2020/12/29 11:39:27;;;;;;;29.83;23.00;;;4.60;99.90;;;;;;5028863;28;20478;-53
2020/12/29 11:41:54;;;;;;;27.37;22.27;;;4.60;99.90;;;;;;5028695;28;20483;-53
2020/12/29 11:44:22;;;;;;;28.03;22.43;;;4.60;99.90;;;;;;5018800;28;20493;-53
2020/12/29 11:46:49;;;;;;;28.27;23.20;;;4.60;99.90;;;;;;5008567;28;20541;-53
2020/12/29 11:49:16;;;;;;;28.37;22.80;;;4.70;99.90;;;;;;5005791;28;20505;-52
2020/12/29 11:51:47;;;;;;;29.93;23.47;;;4.70;99.90;;;;;;5021974;28;20493;-53
2020/12/29 11:54:15;;;;;;;30.43;23.93;;;4.70;99.90;;;;;;5017864;28;20522;-52
2020/12/29 11:56:42;;;;;;;28.03;22.87;;;4.70;99.90;;;;;;5016588;28;20473;-53
2020/12/29 11:59:09;;;;;;;28.57;23.37;;;4.70;99.90;;;;;;5026746;28;21049;-53
2020/12/29 12:01:38;;;;;;;29.47;22.20;;;4.60;99.90;;;;;;5006412;28;20488;-53
2020/12/29 12:04:05;;;;;;;30.07;23.20;;;4.70;99.90;;;;;;5017742;28;20533;-53
2020/12/29 12:06:34;;;;;;;27.70;22.27;;;4.60;99.90;;;;;;5026923;28;20547;-53
2020/12/29 12:09:03;;;;;;;28.13;22.27;;;4.60;99.90;;;;;;5028838;28;20521;-53
2020/12/29 12:11:31;;;;;;;28.70;22.93;;;4.70;99.90;;;;;;5028665;28;20485;-53
2020/12/29 12:13:58;;;;;;;26.50;21.53;;;4.70;99.90;;;;;;5029237;28;20479;-53
2020/12/29 12:16:26;;;;;;;29.93;22.87;;;4.70;99.90;;;;;;5028851;28;20549;-53
2020/12/29 12:18:54;;;;;;;30.70;23.97;;;4.70;99.90;;;;;;5029007;28;20888;-53
2020/12/29 12:21:29;;;;;;;32.43;25.50;;;4.70;99.90;;;;;;5025789;28;20610;-53
2020/12/29 12:23:57;;;;;;;32.03;24.83;;;4.80;99.90;;;;;;5028414;28;20502;-53
2020/12/29 12:26:25;;;;;;;31.50;24.67;;;4.70;99.90;;;;;;5029727;28;20498;-53
2020/12/29 12:28:53;;;;;;;31.73;24.77;;;4.70;99.90;;;;;;5029771;28;20576;-53
2020/12/29 12:31:21;;;;;;;37.40;26.80;;;4.80;99.90;;;;;;5029443;28;20528;-53
2020/12/29 12:33:49;;;;;;;37.47;27.93;;;5.00;99.90;;;;;;5023322;28;20518;-54
2020/12/29 12:36:18;;;;;;;37.83;28.07;;;4.90;99.90;;;;;;5014117;28;21106;-53
2020/12/29 12:38:46;;;;;;;35.27;27.83;;;4.80;99.90;;;;;;5011469;28;20575;-53
2020/12/29 12:41:13;;;;;;;38.53;28.60;;;4.80;99.90;;;;;;5018838;28;20873;-53
2020/12/29 12:43:43;;;;;;;36.73;27.80;;;4.90;99.90;;;;;;5019504;28;20587;-53
2020/12/29 12:46:12;;;;;;;38.13;29.00;;;4.90;99.90;;;;;;5013323;28;20486;-53
2020/12/29 12:48:41;;;;;;;36.67;27.70;;;4.80;99.90;;;;;;5007431;28;20977;-53
2020/12/29 12:51:08;;;;;;;36.13;27.30;;;4.80;99.90;;;;;;5008898;28;20921;-53
2020/12/29 12:53:37;;;;;;;34.63;27.53;;;4.80;99.90;;;;;;5007935;28;20519;-53